sensor_id;sensor_type;location;lat;lon;timestamp;temperature;humidity
22491;DHT22;11412;50.802;4.350;2023-12-20T00:00:57;7.30;99.90
22491;DHT22;11412;50.802;4.350;2023-12-20T00:03:23;7.40;99.90
22491;DHT22;11412;50.802;4.350;2023-12-20T00:05:49;7.50;99.90
22491;DHT22;11412;50.802;4.350;2023-12-20T00:08:15;7.30;99.90
22491;DHT22;11412;50.802;4.350;2023-12-20T00:10:41;7.30;99.90
22491;DHT22;11412;50.802;4.350;2023-12-20T00:13:07;7.30;99.90
22491;DHT22;11412;50.802;4.350;2023-12-20T00:15:33;7.30;99.90
22491;DHT22;11412;50.802;4.350;2023-12-20T00:17:59;7.30;99.90
22491;DHT22;11412;50.802;4.350;2023-12-20T00:20:26;7.40;99.90
22491;DHT22;11412;50.802;4.350;2023-12-20T00:22:52;7.50;99.90
22491;DHT22;11412;50.802;4.350;2023-12-20T00:25:18;7.40;99.90
22491;DHT22;11412;50.802;4.350;2023-12-20T00:27:43;7.60;99.90
22491;DHT22;11412;50.802;4.350;2023-12-20T00:30:10;7.50;99.90
22491;DHT22;11412;50.802;4.350;2023-12-20T00:32:35;7.40;99.90
22491;DHT22;11412;50.802;4.350;2023-12-20T00:35:01;7.30;99.90
22491;DHT22;11412;50.802;4.350;2023-12-20T00:37:27;7.30;99.90
22491;DHT22;11412;50.802;4.350;2023-12-20T00:39:53;7.20;99.90
22491;DHT22;11412;50.802;4.350;2023-12-20T00:42:18;7.10;99.90
22491;DHT22;11412;50.802;4.350;2023-12-20T00:44:44;7.00;99.90
22491;DHT22;11412;50.802;4.350;2023-12-20T00:47:10;7.10;99.90
22491;DHT22;11412;50.802;4.350;2023-12-20T00:49:36;7.00;99.90
22491;DHT22;11412;50.802;4.350;2023-12-20T00:52:01;6.90;99.90
22491;DHT22;11412;50.802;4.350;2023-12-20T00:54:27;6.80;99.90
22491;DHT22;11412;50.802;4.350;2023-12-20T00:56:54;6.80;99.90
22491;DHT22;11412;50.802;4.350;2023-12-20T00:59:19;6.90;99.90
22491;DHT22;11412;50.802;4.350;2023-12-20T01:01:45;7.00;99.90
22491;DHT22;11412;50.802;4.350;2023-12-20T01:04:10;6.90;99.90
22491;DHT22;11412;50.802;4.350;2023-12-20T01:06:36;6.80;99.90
22491;DHT22;11412;50.802;4.350;2023-12-20T01:09:02;6.80;99.90
22491;DHT22;11412;50.802;4.350;2023-12-20T01:11:28;6.80;99.90
22491;DHT22;11412;50.802;4.350;2023-12-20T01:13:54;6.90;99.90
22491;DHT22;11412;50.802;4.350;2023-12-20T01:16:19;6.90;99.90
22491;DHT22;11412;50.802;4.350;2023-12-20T01:18:45;6.80;99.90
22491;DHT22;11412;50.802;4.350;2023-12-20T01:21:10;6.80;99.90
22491;DHT22;11412;50.802;4.350;2023-12-20T01:23:36;6.70;99.90
22491;DHT22;11412;50.802;4.350;2023-12-20T01:26:02;6.80;99.90
22491;DHT22;11412;50.802;4.350;2023-12-20T01:28:29;6.70;99.90
22491;DHT22;11412;50.802;4.350;2023-12-20T01:30:55;6.60;99.90
22491;DHT22;11412;50.802;4.350;2023-12-20T01:33:20;6.70;99.90
22491;DHT22;11412;50.802;4.350;2023-12-20T01:35:46;6.60;99.90
22491;DHT22;11412;50.802;4.350;2023-12-20T01:38:12;6.70;99.90
22491;DHT22;11412;50.802;4.350;2023-12-20T01:40:37;6.70;99.90
22491;DHT22;11412;50.802;4.350;2023-12-20T01:43:13;6.80;99.90
22491;DHT22;11412;50.802;4.350;2023-12-20T01:45:39;6.80;99.90
22491;DHT22;11412;50.802;4.350;2023-12-20T01:48:06;6.80;99.90
22491;DHT22;11412;50.802;4.350;2023-12-20T01:50:33;6.80;99.90
22491;DHT22;11412;50.802;4.350;2023-12-20T01:53:01;6.80;99.90
22491;DHT22;11412;50.802;4.350;2023-12-20T01:55:30;6.70;99.90
22491;DHT22;11412;50.802;4.350;2023-12-20T01:57:57;6.60;99.90
22491;DHT22;11412;50.802;4.350;2023-12-20T02:00:24;6.60;99.90
22491;DHT22;11412;50.802;4.350;2023-12-20T02:02:53;6.60;99.90
22491;DHT22;11412;50.802;4.350;2023-12-20T02:05:21;6.60;99.90
22491;DHT22;11412;50.802;4.350;2023-12-20T02:07:47;6.50;99.90
22491;DHT22;11412;50.802;4.350;2023-12-20T02:10:13;6.60;99.90
22491;DHT22;11412;50.802;4.350;2023-12-20T02:12:39;6.70;99.90
22491;DHT22;11412;50.802;4.350;2023-12-20T02:15:05;6.90;99.90
22491;DHT22;11412;50.802;4.350;2023-12-20T02:17:32;6.90;99.90
22491;DHT22;11412;50.802;4.350;2023-12-20T02:19:58;6.80;99.90
22491;DHT22;11412;50.802;4.350;2023-12-20T02:22:23;6.70;99.90
22491;DHT22;11412;50.802;4.350;2023-12-20T02:24:49;6.70;99.90
22491;DHT22;11412;50.802;4.350;2023-12-20T02:27:15;6.70;99.90
22491;DHT22;11412;50.802;4.350;2023-12-20T02:29:43;6.60;99.90
22491;DHT22;11412;50.802;4.350;2023-12-20T02:32:09;6.70;99.90
22491;DHT22;11412;50.802;4.350;2023-12-20T02:34:34;6.60;99.90
22491;DHT22;11412;50.802;4.350;2023-12-20T02:37:00;6.70;99.90
22491;DHT22;11412;50.802;4.350;2023-12-20T02:39:26;6.70;99.90
22491;DHT22;11412;50.802;4.350;2023-12-20T02:41:51;6.60;99.90
22491;DHT22;11412;50.802;4.350;2023-12-20T02:44:17;6.70;99.90
22491;DHT22;11412;50.802;4.350;2023-12-20T02:46:42;6.70;99.90
22491;DHT22;11412;50.802;4.350;2023-12-20T02:49:08;6.70;99.90
22491;DHT22;11412;50.802;4.350;2023-12-20T02:51:34;6.70;99.90
22491;DHT22;11412;50.802;4.350;2023-12-20T02:54:00;6.60;99.90
22491;DHT22;11412;50.802;4.350;2023-12-20T02:56:25;6.70;99.90
22491;DHT22;11412;50.802;4.350;2023-12-20T02:58:51;6.90;99.90
22491;DHT22;11412;50.802;4.350;2023-12-20T03:01:16;7.00;99.90
22491;DHT22;11412;50.802;4.350;2023-12-20T03:03:42;7.10;99.90
22491;DHT22;11412;50.802;4.350;2023-12-20T03:06:08;7.20;99.90
22491;DHT22;11412;50.802;4.350;2023-12-20T03:08:33;7.20;99.90
22491;DHT22;11412;50.802;4.350;2023-12-20T03:10:59;7.30;99.90
22491;DHT22;11412;50.802;4.350;2023-12-20T03:13:25;7.40;99.90
22491;DHT22;11412;50.802;4.350;2023-12-20T03:15:51;7.40;99.90
22491;DHT22;11412;50.802;4.350;2023-12-20T03:18:16;7.50;99.90
22491;DHT22;11412;50.802;4.350;2023-12-20T03:20:43;7.30;99.90
22491;DHT22;11412;50.802;4.350;2023-12-20T03:23:09;7.10;99.90
22491;DHT22;11412;50.802;4.350;2023-12-20T03:25:35;7.10;99.90
22491;DHT22;11412;50.802;4.350;2023-12-20T03:28:00;7.10;99.90
22491;DHT22;11412;50.802;4.350;2023-12-20T03:30:26;7.20;99.90
22491;DHT22;11412;50.802;4.350;2023-12-20T03:32:52;7.10;99.90
22491;DHT22;11412;50.802;4.350;2023-12-20T03:35:17;7.20;99.90
22491;DHT22;11412;50.802;4.350;2023-12-20T03:37:43;7.20;99.90
22491;DHT22;11412;50.802;4.350;2023-12-20T03:40:09;7.10;99.90
22491;DHT22;11412;50.802;4.350;2023-12-20T03:42:35;7.20;99.90
22491;DHT22;11412;50.802;4.350;2023-12-20T03:45:00;7.10;99.90
22491;DHT22;11412;50.802;4.350;2023-12-20T03:47:26;7.00;99.90
22491;DHT22;11412;50.802;4.350;2023-12-20T03:49:52;7.10;99.90
22491;DHT22;11412;50.802;4.350;2023-12-20T03:52:18;7.30;99.90
22491;DHT22;11412;50.802;4.350;2023-12-20T03:54:44;7.10;99.90
22491;DHT22;11412;50.802;4.350;2023-12-20T03:57:09;7.10;99.90
22491;DHT22;11412;50.802;4.350;2023-12-20T03:59:36;7.20;99.90
22491;DHT22;11412;50.802;4.350;2023-12-20T04:02:02;7.10;99.90
22491;DHT22;11412;50.802;4.350;2023-12-20T04:04:27;7.00;99.90
22491;DHT22;11412;50.802;4.350;2023-12-20T04:06:53;7.10;99.90
22491;DHT22;11412;50.802;4.350;2023-12-20T04:09:19;7.20;99.90
22491;DHT22;11412;50.802;4.350;2023-12-20T04:11:44;7.30;99.90
22491;DHT22;11412;50.802;4.350;2023-12-20T04:14:10;7.20;99.90
22491;DHT22;11412;50.802;4.350;2023-12-20T04:16:36;7.30;99.90
22491;DHT22;11412;50.802;4.350;2023-12-20T04:19:02;7.30;99.90
22491;DHT22;11412;50.802;4.350;2023-12-20T04:21:28;7.30;99.90
22491;DHT22;11412;50.802;4.350;2023-12-20T04:23:53;7.30;99.90
22491;DHT22;11412;50.802;4.350;2023-12-20T04:26:19;7.30;99.90
22491;DHT22;11412;50.802;4.350;2023-12-20T04:28:45;7.20;99.90
22491;DHT22;11412;50.802;4.350;2023-12-20T04:31:10;7.30;99.90
22491;DHT22;11412;50.802;4.350;2023-12-20T04:33:36;7.00;99.90
22491;DHT22;11412;50.802;4.350;2023-12-20T04:36:02;7.00;99.90
22491;DHT22;11412;50.802;4.350;2023-12-20T04:38:27;7.00;99.90
22491;DHT22;11412;50.802;4.350;2023-12-20T04:40:53;7.00;99.90
22491;DHT22;11412;50.802;4.350;2023-12-20T04:43:18;7.00;99.90
22491;DHT22;11412;50.802;4.350;2023-12-20T04:45:44;6.90;99.90
22491;DHT22;11412;50.802;4.350;2023-12-20T04:48:10;6.80;99.90
22491;DHT22;11412;50.802;4.350;2023-12-20T04:50:35;6.80;99.90
22491;DHT22;11412;50.802;4.350;2023-12-20T04:53:01;6.90;99.90
22491;DHT22;11412;50.802;4.350;2023-12-20T04:55:27;7.00;99.90
22491;DHT22;11412;50.802;4.350;2023-12-20T04:57:52;7.00;99.90
22491;DHT22;11412;50.802;4.350;2023-12-20T05:00:18;7.10;99.90
22491;DHT22;11412;50.802;4.350;2023-12-20T05:02:44;7.10;99.90
22491;DHT22;11412;50.802;4.350;2023-12-20T05:05:10;7.20;99.90
22491;DHT22;11412;50.802;4.350;2023-12-20T05:07:35;7.10;99.90
22491;DHT22;11412;50.802;4.350;2023-12-20T05:10:02;7.20;99.90
22491;DHT22;11412;50.802;4.350;2023-12-20T05:12:30;7.00;99.90
22491;DHT22;11412;50.802;4.350;2023-12-20T05:14:56;7.00;99.90
22491;DHT22;11412;50.802;4.350;2023-12-20T05:17:21;7.00;99.90
22491;DHT22;11412;50.802;4.350;2023-12-20T05:19:47;7.10;99.90
22491;DHT22;11412;50.802;4.350;2023-12-20T05:22:13;7.10;99.90
22491;DHT22;11412;50.802;4.350;2023-12-20T05:24:39;7.20;99.90
22491;DHT22;11412;50.802;4.350;2023-12-20T05:27:04;7.10;99.90
22491;DHT22;11412;50.802;4.350;2023-12-20T05:29:30;7.20;99.90
22491;DHT22;11412;50.802;4.350;2023-12-20T05:31:58;7.20;99.90
22491;DHT22;11412;50.802;4.350;2023-12-20T05:34:24;7.20;99.90
22491;DHT22;11412;50.802;4.350;2023-12-20T05:36:49;7.10;99.90
22491;DHT22;11412;50.802;4.350;2023-12-20T05:39:15;7.10;99.90
22491;DHT22;11412;50.802;4.350;2023-12-20T05:41:41;7.10;99.90
22491;DHT22;11412;50.802;4.350;2023-12-20T05:44:06;7.20;99.90
22491;DHT22;11412;50.802;4.350;2023-12-20T05:46:32;7.30;99.90
22491;DHT22;11412;50.802;4.350;2023-12-20T05:48:58;7.20;99.90
22491;DHT22;11412;50.802;4.350;2023-12-20T05:51:23;7.10;99.90
22491;DHT22;11412;50.802;4.350;2023-12-20T05:53:49;7.10;99.90
22491;DHT22;11412;50.802;4.350;2023-12-20T05:56:15;7.00;99.90
22491;DHT22;11412;50.802;4.350;2023-12-20T05:58:41;6.90;99.90
22491;DHT22;11412;50.802;4.350;2023-12-20T06:01:06;6.90;99.90
22491;DHT22;11412;50.802;4.350;2023-12-20T06:03:34;6.90;99.90
22491;DHT22;11412;50.802;4.350;2023-12-20T06:06:05;7.00;99.90
22491;DHT22;11412;50.802;4.350;2023-12-20T06:08:31;7.00;99.90
22491;DHT22;11412;50.802;4.350;2023-12-20T06:10:57;6.90;99.90
22491;DHT22;11412;50.802;4.350;2023-12-20T06:13:23;6.70;99.90
22491;DHT22;11412;50.802;4.350;2023-12-20T06:15:48;6.80;99.90
22491;DHT22;11412;50.802;4.350;2023-12-20T06:18:14;6.60;99.90
22491;DHT22;11412;50.802;4.350;2023-12-20T06:20:40;6.60;99.90
22491;DHT22;11412;50.802;4.350;2023-12-20T06:23:05;6.50;99.90
22491;DHT22;11412;50.802;4.350;2023-12-20T06:25:31;6.60;99.90
22491;DHT22;11412;50.802;4.350;2023-12-20T06:27:56;6.60;99.90
22491;DHT22;11412;50.802;4.350;2023-12-20T06:30:22;6.60;99.90
22491;DHT22;11412;50.802;4.350;2023-12-20T06:32:50;6.70;99.90
22491;DHT22;11412;50.802;4.350;2023-12-20T06:35:16;6.80;99.90
22491;DHT22;11412;50.802;4.350;2023-12-20T06:37:41;6.80;99.90
22491;DHT22;11412;50.802;4.350;2023-12-20T06:40:10;7.00;99.90
22491;DHT22;11412;50.802;4.350;2023-12-20T06:42:36;7.00;99.90
22491;DHT22;11412;50.802;4.350;2023-12-20T06:45:03;6.90;99.90
22491;DHT22;11412;50.802;4.350;2023-12-20T06:47:29;6.80;99.90
22491;DHT22;11412;50.802;4.350;2023-12-20T06:49:54;6.80;99.90
22491;DHT22;11412;50.802;4.350;2023-12-20T06:52:20;6.80;99.90
22491;DHT22;11412;50.802;4.350;2023-12-20T06:54:46;6.80;99.90
22491;DHT22;11412;50.802;4.350;2023-12-20T06:57:11;6.70;99.90
22491;DHT22;11412;50.802;4.350;2023-12-20T06:59:43;6.60;99.90
22491;DHT22;11412;50.802;4.350;2023-12-20T07:02:09;6.50;99.90
22491;DHT22;11412;50.802;4.350;2023-12-20T07:04:42;6.60;99.90
22491;DHT22;11412;50.802;4.350;2023-12-20T07:07:08;6.60;99.90
22491;DHT22;11412;50.802;4.350;2023-12-20T07:09:34;6.50;99.90
22491;DHT22;11412;50.802;4.350;2023-12-20T07:11:59;6.60;99.90
22491;DHT22;11412;50.802;4.350;2023-12-20T07:14:25;6.50;99.90
22491;DHT22;11412;50.802;4.350;2023-12-20T07:16:51;6.30;99.90
22491;DHT22;11412;50.802;4.350;2023-12-20T07:19:17;6.20;99.90
22491;DHT22;11412;50.802;4.350;2023-12-20T07:21:42;6.40;99.90
22491;DHT22;11412;50.802;4.350;2023-12-20T07:24:08;6.40;99.90
22491;DHT22;11412;50.802;4.350;2023-12-20T07:26:35;6.40;99.90
22491;DHT22;11412;50.802;4.350;2023-12-20T07:29:00;6.20;99.90
22491;DHT22;11412;50.802;4.350;2023-12-20T07:31:26;6.50;99.90
22491;DHT22;11412;50.802;4.350;2023-12-20T07:33:52;6.60;99.90
22491;DHT22;11412;50.802;4.350;2023-12-20T07:36:19;6.30;99.90
22491;DHT22;11412;50.802;4.350;2023-12-20T07:38:44;6.30;99.90
22491;DHT22;11412;50.802;4.350;2023-12-20T07:41:10;6.20;99.90
22491;DHT22;11412;50.802;4.350;2023-12-20T07:43:36;6.30;99.90
22491;DHT22;11412;50.802;4.350;2023-12-20T07:46:08;6.40;99.90
22491;DHT22;11412;50.802;4.350;2023-12-20T07:48:37;6.60;99.90
22491;DHT22;11412;50.802;4.350;2023-12-20T07:51:04;6.50;99.90
22491;DHT22;11412;50.802;4.350;2023-12-20T07:53:31;6.40;99.90
22491;DHT22;11412;50.802;4.350;2023-12-20T07:55:57;6.40;99.90
22491;DHT22;11412;50.802;4.350;2023-12-20T07:58:22;6.30;99.90
22491;DHT22;11412;50.802;4.350;2023-12-20T08:00:48;6.40;99.90
22491;DHT22;11412;50.802;4.350;2023-12-20T08:03:14;6.40;99.90
22491;DHT22;11412;50.802;4.350;2023-12-20T08:05:39;6.50;99.90
22491;DHT22;11412;50.802;4.350;2023-12-20T08:08:06;6.50;99.90
22491;DHT22;11412;50.802;4.350;2023-12-20T08:10:32;6.50;99.90
22491;DHT22;11412;50.802;4.350;2023-12-20T08:12:57;6.40;99.90
22491;DHT22;11412;50.802;4.350;2023-12-20T08:15:23;6.40;99.90
22491;DHT22;11412;50.802;4.350;2023-12-20T08:17:49;6.60;99.90
22491;DHT22;11412;50.802;4.350;2023-12-20T08:20:16;6.60;99.90
22491;DHT22;11412;50.802;4.350;2023-12-20T08:22:42;6.50;99.90
22491;DHT22;11412;50.802;4.350;2023-12-20T08:25:08;6.30;99.90
22491;DHT22;11412;50.802;4.350;2023-12-20T08:27:39;6.40;99.90
22491;DHT22;11412;50.802;4.350;2023-12-20T08:30:08;6.30;99.90
22491;DHT22;11412;50.802;4.350;2023-12-20T08:32:34;6.20;99.90
22491;DHT22;11412;50.802;4.350;2023-12-20T08:35:00;6.30;99.90
22491;DHT22;11412;50.802;4.350;2023-12-20T08:37:25;6.30;99.90
22491;DHT22;11412;50.802;4.350;2023-12-20T08:39:51;6.50;99.90
22491;DHT22;11412;50.802;4.350;2023-12-20T08:42:17;6.50;99.90
22491;DHT22;11412;50.802;4.350;2023-12-20T08:44:42;6.40;99.90
22491;DHT22;11412;50.802;4.350;2023-12-20T08:47:08;6.70;99.90
22491;DHT22;11412;50.802;4.350;2023-12-20T08:49:34;6.80;99.90
22491;DHT22;11412;50.802;4.350;2023-12-20T08:51:59;6.80;99.90
22491;DHT22;11412;50.802;4.350;2023-12-20T08:54:25;6.80;99.90
22491;DHT22;11412;50.802;4.350;2023-12-20T08:56:51;6.70;99.90
22491;DHT22;11412;50.802;4.350;2023-12-20T08:59:16;6.70;99.90
22491;DHT22;11412;50.802;4.350;2023-12-20T09:01:44;6.50;99.90
22491;DHT22;11412;50.802;4.350;2023-12-20T09:04:09;6.60;99.90
22491;DHT22;11412;50.802;4.350;2023-12-20T09:06:35;6.80;99.90
22491;DHT22;11412;50.802;4.350;2023-12-20T09:09:01;7.00;99.90
22491;DHT22;11412;50.802;4.350;2023-12-20T09:11:26;7.00;99.90
22491;DHT22;11412;50.802;4.350;2023-12-20T09:13:52;7.10;99.90
22491;DHT22;11412;50.802;4.350;2023-12-20T09:16:18;7.50;99.90
22491;DHT22;11412;50.802;4.350;2023-12-20T09:18:43;7.70;99.90
22491;DHT22;11412;50.802;4.350;2023-12-20T09:21:09;7.60;99.90
22491;DHT22;11412;50.802;4.350;2023-12-20T09:23:35;7.70;99.90
22491;DHT22;11412;50.802;4.350;2023-12-20T09:26:02;7.60;99.90
22491;DHT22;11412;50.802;4.350;2023-12-20T09:28:28;7.50;99.90
22491;DHT22;11412;50.802;4.350;2023-12-20T09:30:54;7.30;99.90
22491;DHT22;11412;50.802;4.350;2023-12-20T09:33:19;7.60;99.90
22491;DHT22;11412;50.802;4.350;2023-12-20T09:35:45;7.80;99.90
22491;DHT22;11412;50.802;4.350;2023-12-20T09:38:11;8.40;99.90
22491;DHT22;11412;50.802;4.350;2023-12-20T09:40:41;8.50;99.90
22491;DHT22;11412;50.802;4.350;2023-12-20T09:43:18;8.60;99.90
22491;DHT22;11412;50.802;4.350;2023-12-20T09:45:46;8.50;99.90
22491;DHT22;11412;50.802;4.350;2023-12-20T09:48:12;8.60;99.90
22491;DHT22;11412;50.802;4.350;2023-12-20T09:50:40;8.40;99.90
22491;DHT22;11412;50.802;4.350;2023-12-20T09:53:08;8.00;99.90
22491;DHT22;11412;50.802;4.350;2023-12-20T09:55:36;8.20;99.90
22491;DHT22;11412;50.802;4.350;2023-12-20T09:58:02;8.10;99.90
22491;DHT22;11412;50.802;4.350;2023-12-20T10:00:28;8.00;99.90
22491;DHT22;11412;50.802;4.350;2023-12-20T10:02:58;8.10;99.90
22491;DHT22;11412;50.802;4.350;2023-12-20T10:05:31;8.20;99.90
22491;DHT22;11412;50.802;4.350;2023-12-20T10:07:58;8.10;99.90
22491;DHT22;11412;50.802;4.350;2023-12-20T10:10:25;8.00;99.90
22491;DHT22;11412;50.802;4.350;2023-12-20T10:13:10;8.10;99.90
22491;DHT22;11412;50.802;4.350;2023-12-20T10:15:37;7.90;99.90
22491;DHT22;11412;50.802;4.350;2023-12-20T10:18:03;8.00;99.90
22491;DHT22;11412;50.802;4.350;2023-12-20T10:20:30;8.20;99.90
22491;DHT22;11412;50.802;4.350;2023-12-20T10:23:00;8.20;99.90
22491;DHT22;11412;50.802;4.350;2023-12-20T10:25:26;8.10;99.90
22491;DHT22;11412;50.802;4.350;2023-12-20T10:30:34;8.30;99.90
22491;DHT22;11412;50.802;4.350;2023-12-20T10:33:01;8.40;99.90
22491;DHT22;11412;50.802;4.350;2023-12-20T10:35:27;8.40;99.90
22491;DHT22;11412;50.802;4.350;2023-12-20T10:37:56;8.50;99.90
22491;DHT22;11412;50.802;4.350;2023-12-20T10:40:26;8.30;99.90
22491;DHT22;11412;50.802;4.350;2023-12-20T10:42:53;8.30;99.90
22491;DHT22;11412;50.802;4.350;2023-12-20T10:45:19;8.20;99.90
22491;DHT22;11412;50.802;4.350;2023-12-20T10:47:47;8.20;99.90
22491;DHT22;11412;50.802;4.350;2023-12-20T10:50:14;8.20;99.90
22491;DHT22;11412;50.802;4.350;2023-12-20T10:52:41;8.30;99.90
22491;DHT22;11412;50.802;4.350;2023-12-20T10:55:08;8.50;99.90
22491;DHT22;11412;50.802;4.350;2023-12-20T10:57:36;8.60;99.90
22491;DHT22;11412;50.802;4.350;2023-12-20T11:00:02;8.60;99.90
22491;DHT22;11412;50.802;4.350;2023-12-20T11:02:32;8.60;99.90
22491;DHT22;11412;50.802;4.350;2023-12-20T11:07:46;8.50;99.90
22491;DHT22;11412;50.802;4.350;2023-12-20T11:10:36;8.70;99.90
22491;DHT22;11412;50.802;4.350;2023-12-20T11:15:42;8.60;99.90
22491;DHT22;11412;50.802;4.350;2023-12-20T11:18:09;8.60;99.90
22491;DHT22;11412;50.802;4.350;2023-12-20T11:20:41;8.40;99.90
22491;DHT22;11412;50.802;4.350;2023-12-20T11:23:08;8.50;99.90
22491;DHT22;11412;50.802;4.350;2023-12-20T11:25:54;8.50;99.90
22491;DHT22;11412;50.802;4.350;2023-12-20T11:28:24;8.50;99.90
22491;DHT22;11412;50.802;4.350;2023-12-20T11:30:55;8.60;99.90
22491;DHT22;11412;50.802;4.350;2023-12-20T11:33:37;8.70;99.90
22491;DHT22;11412;50.802;4.350;2023-12-20T11:36:03;8.70;99.90
22491;DHT22;11412;50.802;4.350;2023-12-20T11:38:37;8.60;99.90
22491;DHT22;11412;50.802;4.350;2023-12-20T11:41:06;8.60;99.90
22491;DHT22;11412;50.802;4.350;2023-12-20T11:43:38;8.50;99.90
22491;DHT22;11412;50.802;4.350;2023-12-20T11:46:05;8.70;99.90
22491;DHT22;11412;50.802;4.350;2023-12-20T11:48:32;8.80;99.90
22491;DHT22;11412;50.802;4.350;2023-12-20T11:50:58;8.80;99.90
22491;DHT22;11412;50.802;4.350;2023-12-20T11:53:24;8.80;99.90
22491;DHT22;11412;50.802;4.350;2023-12-20T11:55:50;8.80;99.90
22491;DHT22;11412;50.802;4.350;2023-12-20T11:58:16;8.70;99.90
22491;DHT22;11412;50.802;4.350;2023-12-20T12:00:42;8.70;99.90
22491;DHT22;11412;50.802;4.350;2023-12-20T12:03:08;8.70;99.90
22491;DHT22;11412;50.802;4.350;2023-12-20T12:05:34;8.70;99.90
22491;DHT22;11412;50.802;4.350;2023-12-20T12:08:02;8.70;99.90
22491;DHT22;11412;50.802;4.350;2023-12-20T12:10:28;8.80;99.90
22491;DHT22;11412;50.802;4.350;2023-12-20T12:12:54;8.90;99.90
22491;DHT22;11412;50.802;4.350;2023-12-20T12:15:20;8.80;99.90
22491;DHT22;11412;50.802;4.350;2023-12-20T12:17:53;8.90;99.90
22491;DHT22;11412;50.802;4.350;2023-12-20T12:20:20;8.80;99.90
22491;DHT22;11412;50.802;4.350;2023-12-20T12:22:45;8.80;99.90
22491;DHT22;11412;50.802;4.350;2023-12-20T12:25:13;8.90;99.90
22491;DHT22;11412;50.802;4.350;2023-12-20T12:27:40;9.00;99.90
22491;DHT22;11412;50.802;4.350;2023-12-20T12:30:07;9.00;99.90
22491;DHT22;11412;50.802;4.350;2023-12-20T12:32:35;9.00;99.90
22491;DHT22;11412;50.802;4.350;2023-12-20T12:35:05;9.00;99.90
22491;DHT22;11412;50.802;4.350;2023-12-20T12:37:34;9.00;99.90
22491;DHT22;11412;50.802;4.350;2023-12-20T12:40:00;8.80;99.90
22491;DHT22;11412;50.802;4.350;2023-12-20T12:42:26;8.80;99.90
22491;DHT22;11412;50.802;4.350;2023-12-20T12:44:54;8.80;99.90
22491;DHT22;11412;50.802;4.350;2023-12-20T12:47:21;8.80;99.90
22491;DHT22;11412;50.802;4.350;2023-12-20T12:49:49;8.90;99.90
22491;DHT22;11412;50.802;4.350;2023-12-20T12:52:14;9.00;99.90
22491;DHT22;11412;50.802;4.350;2023-12-20T12:54:41;9.10;99.90
22491;DHT22;11412;50.802;4.350;2023-12-20T12:57:08;9.10;99.90
22491;DHT22;11412;50.802;4.350;2023-12-20T12:59:33;9.10;99.90
22491;DHT22;11412;50.802;4.350;2023-12-20T13:01:59;8.80;99.90
22491;DHT22;11412;50.802;4.350;2023-12-20T13:04:24;8.90;99.90
22491;DHT22;11412;50.802;4.350;2023-12-20T13:06:50;9.00;99.90
22491;DHT22;11412;50.802;4.350;2023-12-20T13:09:17;8.90;99.90
22491;DHT22;11412;50.802;4.350;2023-12-20T13:11:44;8.90;99.90
22491;DHT22;11412;50.802;4.350;2023-12-20T13:14:09;9.00;99.90
22491;DHT22;11412;50.802;4.350;2023-12-20T13:16:41;9.00;99.90
22491;DHT22;11412;50.802;4.350;2023-12-20T13:19:06;9.10;99.90
22491;DHT22;11412;50.802;4.350;2023-12-20T13:21:32;9.10;99.90
22491;DHT22;11412;50.802;4.350;2023-12-20T13:23:57;9.10;99.90
22491;DHT22;11412;50.802;4.350;2023-12-20T13:26:23;9.10;99.90
22491;DHT22;11412;50.802;4.350;2023-12-20T13:28:49;9.10;99.90
22491;DHT22;11412;50.802;4.350;2023-12-20T13:31:15;9.10;99.90
22491;DHT22;11412;50.802;4.350;2023-12-20T13:33:40;9.10;99.90
22491;DHT22;11412;50.802;4.350;2023-12-20T13:36:06;9.20;99.90
22491;DHT22;11412;50.802;4.350;2023-12-20T13:38:32;9.20;99.90
22491;DHT22;11412;50.802;4.350;2023-12-20T13:40:58;9.10;99.90
22491;DHT22;11412;50.802;4.350;2023-12-20T13:43:24;9.10;99.90
22491;DHT22;11412;50.802;4.350;2023-12-20T13:45:50;9.20;99.90
22491;DHT22;11412;50.802;4.350;2023-12-20T13:48:16;9.30;99.90
22491;DHT22;11412;50.802;4.350;2023-12-20T13:50:42;9.30;99.90
22491;DHT22;11412;50.802;4.350;2023-12-20T13:53:08;9.20;99.90
22491;DHT22;11412;50.802;4.350;2023-12-20T13:55:34;9.10;99.90
22491;DHT22;11412;50.802;4.350;2023-12-20T13:57:59;9.30;99.90
22491;DHT22;11412;50.802;4.350;2023-12-20T14:00:25;9.20;99.90
22491;DHT22;11412;50.802;4.350;2023-12-20T14:02:51;9.30;99.90
22491;DHT22;11412;50.802;4.350;2023-12-20T14:05:17;9.30;99.90
22491;DHT22;11412;50.802;4.350;2023-12-20T14:07:43;9.40;99.90
22491;DHT22;11412;50.802;4.350;2023-12-20T14:10:13;9.60;99.90
22491;DHT22;11412;50.802;4.350;2023-12-20T14:12:39;9.50;99.90
22491;DHT22;11412;50.802;4.350;2023-12-20T14:15:05;9.40;99.90
22491;DHT22;11412;50.802;4.350;2023-12-20T14:17:37;9.40;99.90
22491;DHT22;11412;50.802;4.350;2023-12-20T14:20:05;9.40;99.90
22491;DHT22;11412;50.802;4.350;2023-12-20T14:22:31;9.50;99.90
22491;DHT22;11412;50.802;4.350;2023-12-20T14:24:57;9.40;99.90
22491;DHT22;11412;50.802;4.350;2023-12-20T14:27:23;9.40;99.90
22491;DHT22;11412;50.802;4.350;2023-12-20T14:29:50;9.50;99.90
22491;DHT22;11412;50.802;4.350;2023-12-20T14:32:15;9.60;99.90
22491;DHT22;11412;50.802;4.350;2023-12-20T14:34:41;9.70;99.90
22491;DHT22;11412;50.802;4.350;2023-12-20T14:37:07;9.60;99.90
22491;DHT22;11412;50.802;4.350;2023-12-20T14:39:33;9.60;99.90
22491;DHT22;11412;50.802;4.350;2023-12-20T14:41:58;9.70;99.90
22491;DHT22;11412;50.802;4.350;2023-12-20T14:44:24;9.80;99.90
22491;DHT22;11412;50.802;4.350;2023-12-20T14:46:50;9.60;99.90
22491;DHT22;11412;50.802;4.350;2023-12-20T14:49:16;9.50;99.90
22491;DHT22;11412;50.802;4.350;2023-12-20T14:51:45;9.60;99.90
22491;DHT22;11412;50.802;4.350;2023-12-20T14:54:13;9.50;99.90
22491;DHT22;11412;50.802;4.350;2023-12-20T14:56:40;9.60;99.90
22491;DHT22;11412;50.802;4.350;2023-12-20T14:59:06;9.70;99.90
22491;DHT22;11412;50.802;4.350;2023-12-20T15:01:33;9.50;99.90
22491;DHT22;11412;50.802;4.350;2023-12-20T15:03:59;9.50;99.90
22491;DHT22;11412;50.802;4.350;2023-12-20T15:06:26;9.50;99.90
22491;DHT22;11412;50.802;4.350;2023-12-20T15:08:51;9.50;99.90
22491;DHT22;11412;50.802;4.350;2023-12-20T15:11:17;9.50;99.90
22491;DHT22;11412;50.802;4.350;2023-12-20T15:13:43;9.50;99.90
22491;DHT22;11412;50.802;4.350;2023-12-20T15:16:09;9.50;99.90
22491;DHT22;11412;50.802;4.350;2023-12-20T15:18:34;9.50;99.90
22491;DHT22;11412;50.802;4.350;2023-12-20T15:21:00;9.50;99.90
22491;DHT22;11412;50.802;4.350;2023-12-20T15:23:26;9.50;99.90
22491;DHT22;11412;50.802;4.350;2023-12-20T15:25:54;9.50;99.90
22491;DHT22;11412;50.802;4.350;2023-12-20T15:28:19;9.50;99.90
22491;DHT22;11412;50.802;4.350;2023-12-20T15:30:45;9.50;99.90
22491;DHT22;11412;50.802;4.350;2023-12-20T15:33:11;9.60;99.90
22491;DHT22;11412;50.802;4.350;2023-12-20T15:35:36;9.80;99.90
22491;DHT22;11412;50.802;4.350;2023-12-20T15:38:02;9.80;99.90
22491;DHT22;11412;50.802;4.350;2023-12-20T15:40:29;9.80;99.90
22491;DHT22;11412;50.802;4.350;2023-12-20T15:42:55;9.80;99.90
22491;DHT22;11412;50.802;4.350;2023-12-20T15:45:21;9.80;99.90
22491;DHT22;11412;50.802;4.350;2023-12-20T15:47:46;9.60;99.90